Terminal Aerodrome Forecast
Issued by NWS

Home | Current Version | Previous Version | Text Only | Print | Product List | Glossary On
Versions: 1 2 3 4 5 6 7 8 9 10 11 12 13 14 15 16 17 18 19 20 21 22 23 24 25
000
FTUS42 KRAH 261726
TAFRWI
TAF
KRWI 261726Z 2618/2718 VRB03KT P6SM SCT035
     FM262000 VRB03KT P6SM BKN040
     FM270000 VRB04KT P6SM VCSH OVC040
      TEMPO 2701/2703 5SM -SHRA BR OVC030
     FM270600 17005KT 6SM -SHRA OVC018
      TEMPO 2706/2709 2SM SHRA BR OVC008
     FM271200 20005KT P6SM BKN008 OVC016
     FM271700 23009KT P6SM SCT040=

USA.gov is the U.S. government's official web portal to all federal, state and local government web resources and services.